createdAt,value
2018-08-19T00:01:12.470Z,22.14
2018-08-19T00:03:40.994Z,22.13
2018-08-19T00:06:09.975Z,22.09
2018-08-19T00:08:38.503Z,22.07
2018-08-19T00:11:09.159Z,22.07
2018-08-19T00:13:38.823Z,22.07
2018-08-19T00:16:08.794Z,22.05
2018-08-19T00:18:37.714Z,22.03
2018-08-19T00:21:10.871Z,22.02
2018-08-19T00:23:44.749Z,22.02
2018-08-19T00:26:15.027Z,21.99
2018-08-19T00:28:43.481Z,21.98
2018-08-19T00:31:12.089Z,21.96
2018-08-19T00:33:40.642Z,21.94
2018-08-19T00:36:24.094Z,21.89
2018-08-19T00:38:53.043Z,21.84
2018-08-19T00:41:21.653Z,21.68
2018-08-19T00:43:50.158Z,21.81
2018-08-19T00:46:25.871Z,21.85
2018-08-19T00:48:54.603Z,21.85
2018-08-19T00:51:23.189Z,21.84
2018-08-19T00:53:51.679Z,21.84
2018-08-19T00:56:20.276Z,21.81
2018-08-19T00:58:48.835Z,21.78
2018-08-19T01:01:29.824Z,21.75
2018-08-19T01:03:59.022Z,21.70
2018-08-19T01:06:27.583Z,21.67
2018-08-19T01:08:56.099Z,21.64
2018-08-19T01:11:34.267Z,21.63
2018-08-19T01:14:05.810Z,21.60
2018-08-19T01:16:34.280Z,21.58
2018-08-19T01:19:03.220Z,21.55
2018-08-19T01:21:32.976Z,21.54
2018-08-19T01:24:02.604Z,21.49
2018-08-19T01:26:35.110Z,21.46
2018-08-19T01:29:03.950Z,21.43
2018-08-19T01:31:32.410Z,21.40
2018-08-19T01:34:00.953Z,21.39
2018-08-19T01:36:30.585Z,21.37
2018-08-19T01:38:59.043Z,21.35
2018-08-19T01:41:27.503Z,21.32
2018-08-19T01:44:04.237Z,21.30
2018-08-19T01:46:35.555Z,21.27
2018-08-19T01:49:04.054Z,21.26
2018-08-19T01:51:32.600Z,21.21
2018-08-19T01:54:05.814Z,21.21
2018-08-19T01:56:34.872Z,21.17
2018-08-19T01:59:03.419Z,21.15
2018-08-19T02:01:47.108Z,21.13
2018-08-19T02:04:15.737Z,21.10
2018-08-19T02:06:44.707Z,21.04
2018-08-19T02:09:14.828Z,20.98
2018-08-19T02:11:47.723Z,20.94
2018-08-19T02:14:17.408Z,20.91
2018-08-19T02:16:46.327Z,20.91
2018-08-19T02:19:14.876Z,20.91
2018-08-19T02:21:44.113Z,20.89
2018-08-19T02:24:13.207Z,20.89
2018-08-19T02:26:41.818Z,20.87
2018-08-19T02:29:26.642Z,20.85
2018-08-19T02:31:59.288Z,20.81
2018-08-19T02:34:31.708Z,20.00
2018-08-19T02:37:07.139Z,20.79
2018-08-19T02:39:39.735Z,20.78
2018-08-19T02:42:22.686Z,20.76
2018-08-19T02:44:52.796Z,20.76
2018-08-19T02:47:21.355Z,20.74
2018-08-19T02:49:49.922Z,20.72
2018-08-19T02:52:31.610Z,20.68
2018-08-19T02:55:01.444Z,20.64
2018-08-19T02:57:34.221Z,20.62
2018-08-19T03:00:03.862Z,20.58
2018-08-19T03:02:34.225Z,20.56
2018-08-19T03:05:12.089Z,20.55
2018-08-19T03:07:40.855Z,20.53
2018-08-19T03:10:11.472Z,19.79
2018-08-19T03:12:40.779Z,20.50
2018-08-19T03:15:10.849Z,20.49
2018-08-19T03:17:39.751Z,20.48
2018-08-19T03:20:10.191Z,20.47
2018-08-19T03:22:38.783Z,20.46
2018-08-19T03:25:07.939Z,20.44
2018-08-19T03:27:36.446Z,20.42
2018-08-19T03:30:09.307Z,20.38
2018-08-19T03:32:40.876Z,20.35
2018-08-19T03:35:14.720Z,20.34
2018-08-19T03:37:43.214Z,20.30
2018-08-19T03:40:11.786Z,20.31
2018-08-19T03:42:40.356Z,20.30
2018-08-19T03:45:14.000Z,20.29
2018-08-19T03:47:42.552Z,20.26
2018-08-19T03:50:16.361Z,20.23
2018-08-19T03:52:45.219Z,20.22
2018-08-19T03:55:19.793Z,20.19
2018-08-19T03:57:48.834Z,20.14
2018-08-19T04:00:18.685Z,20.11
2018-08-19T04:02:47.246Z,20.08
2018-08-19T04:05:15.849Z,20.06
2018-08-19T04:07:45.084Z,20.05
2018-08-19T04:10:14.022Z,20.01
2018-08-19T04:12:42.638Z,20.00
2018-08-19T04:15:11.615Z,19.98
2018-08-19T04:17:40.132Z,19.98
2018-08-19T04:20:08.794Z,19.98
2018-08-19T04:22:37.441Z,20.01
2018-08-19T04:25:05.967Z,20.01
2018-08-19T04:27:34.602Z,18.51
2018-08-19T04:30:03.141Z,19.98
2018-08-19T04:32:32.441Z,19.97
2018-08-19T04:35:01.903Z,19.96
2018-08-19T04:37:30.556Z,19.97
2018-08-19T04:40:00.052Z,19.99
2018-08-19T04:42:28.603Z,19.97
2018-08-19T04:44:57.109Z,19.97
2018-08-19T04:47:28.738Z,19.96
2018-08-19T04:49:57.339Z,19.97
2018-08-19T04:52:26.059Z,19.99
2018-08-19T04:54:55.738Z,20.03
2018-08-19T04:57:24.255Z,20.07
2018-08-19T04:59:52.782Z,20.10
2018-08-19T05:02:21.653Z,20.14
2018-08-19T05:04:50.073Z,20.17
2018-08-19T05:07:18.623Z,20.23
2018-08-19T05:09:47.224Z,20.28
2018-08-19T05:12:15.826Z,20.33
2018-08-19T05:14:44.472Z,20.35
2018-08-19T05:17:13.884Z,20.38
2018-08-19T05:19:42.417Z,20.44
2018-08-19T05:22:13.384Z,20.49
2018-08-19T05:24:42.438Z,20.54
2018-08-19T05:27:10.937Z,20.59
2018-08-19T05:29:39.520Z,20.65
2018-08-19T05:32:12.414Z,20.76
2018-08-19T05:34:42.120Z,20.81
2018-08-19T05:37:10.682Z,20.88
2018-08-19T05:39:45.046Z,20.96
2018-08-19T05:42:14.120Z,21.03
2018-08-19T05:44:43.295Z,21.11
2018-08-19T05:47:15.403Z,21.18
2018-08-19T05:49:45.036Z,21.27
2018-08-19T05:52:18.803Z,21.36
2018-08-19T05:54:54.775Z,21.43
2018-08-19T05:57:23.339Z,21.52
2018-08-19T05:59:53.223Z,21.64
2018-08-19T06:02:32.874Z,21.75
2018-08-19T06:05:02.637Z,21.87
2018-08-19T06:07:31.625Z,22.02
2018-08-19T06:10:00.144Z,22.20
2018-08-19T06:12:28.748Z,22.37
2018-08-19T06:14:58.840Z,22.59
2018-08-19T06:17:27.337Z,22.89
2018-08-19T06:19:55.852Z,23.30
2018-08-19T06:22:29.534Z,23.74
2018-08-19T06:24:58.140Z,24.22
2018-08-19T06:27:30.787Z,24.71
2018-08-19T06:29:59.272Z,25.19
2018-08-19T06:32:33.296Z,25.68
2018-08-19T06:35:01.993Z,26.16
2018-08-19T06:37:30.435Z,26.60
2018-08-19T06:39:59.891Z,27.01
2018-08-19T06:42:28.510Z,27.40
2018-08-19T06:44:57.150Z,27.78
2018-08-19T06:47:25.754Z,28.13
2018-08-19T06:49:59.462Z,28.48
2018-08-19T06:52:28.187Z,28.86
2018-08-19T06:54:56.931Z,29.08
2018-08-19T06:57:28.765Z,29.41
2018-08-19T06:59:57.454Z,29.79
2018-08-19T07:02:25.939Z,30.18
2018-08-19T07:04:55.092Z,30.46
2018-08-19T07:07:23.692Z,30.82
2018-08-19T07:09:52.257Z,31.15
2018-08-19T07:12:22.664Z,31.62
2018-08-19T07:14:51.364Z,32.07
2018-08-19T07:17:20.225Z,32.47
2018-08-19T07:19:48.903Z,32.83
2018-08-19T07:22:19.777Z,33.21
2018-08-19T07:24:48.330Z,33.53
2018-08-19T07:27:16.755Z,33.86
2018-08-19T07:29:45.355Z,34.23
2018-08-19T07:32:14.158Z,34.54
2018-08-19T07:34:42.705Z,34.87
2018-08-19T07:37:11.257Z,35.22
2018-08-19T07:39:45.980Z,35.60
2018-08-19T07:42:14.664Z,35.97
2018-08-19T07:44:43.115Z,36.25
2018-08-19T07:47:11.565Z,36.50
2018-08-19T07:49:40.038Z,36.75
2018-08-19T07:52:08.517Z,37.02
2018-08-19T07:54:36.960Z,37.32
2018-08-19T07:57:10.832Z,37.63
2018-08-19T07:59:39.363Z,37.96
2018-08-19T08:02:08.080Z,38.22
2018-08-19T08:04:41.875Z,38.36
2018-08-19T08:07:10.838Z,38.56
2018-08-19T08:09:40.004Z,38.75
2018-08-19T08:12:08.604Z,38.96
2018-08-19T08:14:38.465Z,39.17
2018-08-19T08:17:08.242Z,39.38
2018-08-19T08:19:36.871Z,39.63
2018-08-19T08:22:10.987Z,39.87
2018-08-19T08:24:40.081Z,39.88
2018-08-19T08:27:08.657Z,40.03
2018-08-19T08:29:37.175Z,40.27
2018-08-19T08:32:06.108Z,40.54
2018-08-19T08:34:34.705Z,40.25
2018-08-19T08:37:05.376Z,39.46
2018-08-19T08:39:35.152Z,39.38
2018-08-19T08:42:03.711Z,39.13
2018-08-19T08:44:32.447Z,38.79
2018-08-19T08:47:05.235Z,38.21
2018-08-19T08:49:38.895Z,38.00
2018-08-19T08:52:16.526Z,38.58
2018-08-19T08:54:55.924Z,38.57
2018-08-19T08:57:26.204Z,38.47
2018-08-19T08:59:54.899Z,38.50
2018-08-19T09:02:23.606Z,38.23
2018-08-19T09:04:53.446Z,38.08
2018-08-19T09:07:22.088Z,38.10
2018-08-19T09:09:50.907Z,37.92
2018-08-19T09:12:29.491Z,37.43
2018-08-19T09:14:58.081Z,36.82
2018-08-19T09:17:26.756Z,36.31
2018-08-19T09:19:55.359Z,36.14
2018-08-19T09:22:23.975Z,36.97
2018-08-19T09:24:52.577Z,37.10
2018-08-19T09:27:21.090Z,36.94
2018-08-19T09:29:49.687Z,36.65
2018-08-19T09:32:18.264Z,37.09
2018-08-19T09:34:46.819Z,37.51
2018-08-19T09:37:15.406Z,37.98
2018-08-19T09:39:44.017Z,39.22
2018-08-19T09:42:13.315Z,40.53
2018-08-19T09:44:42.989Z,41.62
2018-08-19T09:47:11.567Z,41.64
2018-08-19T09:49:40.092Z,41.84
2018-08-19T09:52:08.622Z,42.71
2018-08-19T09:54:38.081Z,43.71
2018-08-19T09:57:07.492Z,44.30
2018-08-19T09:59:36.236Z,44.87
2018-08-19T10:02:09.247Z,44.87
2018-08-19T10:04:37.864Z,45.10
2018-08-19T10:07:11.413Z,45.70
2018-08-19T10:09:40.003Z,46.12
2018-08-19T10:12:09.428Z,46.58
2018-08-19T10:14:38.003Z,46.77
2018-08-19T10:17:06.700Z,46.95
2018-08-19T10:19:35.405Z,47.44
2018-08-19T10:22:03.962Z,47.49
2018-08-19T10:24:33.539Z,47.86
2018-08-19T10:27:02.181Z,48.05
2018-08-19T10:29:30.781Z,46.97
2018-08-19T10:32:02.875Z,46.13
2018-08-19T10:34:36.041Z,46.41
2018-08-19T10:37:05.249Z,46.67
2018-08-19T10:39:33.804Z,46.58
2018-08-19T10:42:20.399Z,47.18
2018-08-19T10:44:50.247Z,47.31
2018-08-19T10:47:19.620Z,47.14
2018-08-19T10:49:54.190Z,46.39
2018-08-19T10:52:26.253Z,45.96
2018-08-19T10:54:55.868Z,46.12
2018-08-19T10:57:24.357Z,46.64
2018-08-19T10:59:55.619Z,47.48
2018-08-19T11:02:24.410Z,48.21
2018-08-19T11:04:56.559Z,48.86
2018-08-19T11:07:25.028Z,49.60
2018-08-19T11:10:08.732Z,50.22
2018-08-19T11:12:37.196Z,50.59
2018-08-19T11:15:11.467Z,50.92
2018-08-19T11:17:39.942Z,51.19
2018-08-19T11:20:08.463Z,51.44
2018-08-19T11:22:36.931Z,51.52
2018-08-19T11:25:06.180Z,51.70
2018-08-19T11:27:34.707Z,51.58
2018-08-19T11:30:03.983Z,51.39
2018-08-19T11:32:36.266Z,50.98
2018-08-19T11:35:05.583Z,50.34
2018-08-19T11:37:34.036Z,50.08
2018-08-19T11:40:02.589Z,50.02
2018-08-19T11:42:31.180Z,49.77
2018-08-19T11:44:59.713Z,49.14
2018-08-19T11:47:28.163Z,48.36
2018-08-19T11:49:56.784Z,47.36
2018-08-19T11:52:25.286Z,46.35
2018-08-19T11:54:53.788Z,45.12
2018-08-19T11:57:23.064Z,43.87
2018-08-19T11:59:52.150Z,42.82
2018-08-19T12:02:22.917Z,41.87
2018-08-19T12:04:51.513Z,41.15
2018-08-19T12:07:20.355Z,40.44
2018-08-19T12:09:55.907Z,39.88
2018-08-19T12:12:40.650Z,39.33
2018-08-19T12:15:09.192Z,38.80
2018-08-19T12:17:37.711Z,38.37
2018-08-19T12:20:06.819Z,38.06
2018-08-19T12:22:35.437Z,37.78
2018-08-19T12:25:03.873Z,37.50
2018-08-19T12:27:32.441Z,37.29
2018-08-19T12:30:06.157Z,37.09
2018-08-19T12:32:34.924Z,36.90
2018-08-19T12:35:03.428Z,36.67
2018-08-19T12:37:33.195Z,36.25
2018-08-19T12:40:02.161Z,35.88
2018-08-19T12:42:31.638Z,35.68
2018-08-19T12:45:05.399Z,35.43
2018-08-19T12:47:33.976Z,35.32
2018-08-19T12:50:09.559Z,35.30
2018-08-19T12:52:38.067Z,35.29
2018-08-19T12:55:08.401Z,35.23
2018-08-19T12:57:37.923Z,35.12
2018-08-19T13:00:15.946Z,34.94
2018-08-19T13:02:45.848Z,34.82
2018-08-19T13:05:15.423Z,34.86
2018-08-19T13:07:44.011Z,34.89
2018-08-19T13:10:12.608Z,34.85
2018-08-19T13:12:46.406Z,34.83
2018-08-19T13:15:14.900Z,34.82
2018-08-19T13:17:43.488Z,34.80
2018-08-19T13:20:11.946Z,34.76
2018-08-19T13:22:47.199Z,34.71
2018-08-19T13:25:15.671Z,34.65
2018-08-19T13:27:44.140Z,34.44
2018-08-19T13:30:12.782Z,34.32
2018-08-19T13:32:41.295Z,34.30
2018-08-19T13:35:09.796Z,34.26
2018-08-19T13:37:38.253Z,34.19
2018-08-19T13:40:08.346Z,34.19
2018-08-19T13:42:36.841Z,34.17
2018-08-19T13:45:10.513Z,34.13
2018-08-19T13:47:40.283Z,34.13
2018-08-19T13:50:08.882Z,34.12
2018-08-19T13:52:37.516Z,34.09
2018-08-19T13:55:10.220Z,34.04
2018-08-19T13:57:38.674Z,33.98
2018-08-19T14:00:13.655Z,33.88
2018-08-19T14:02:42.221Z,33.76
2018-08-19T14:05:10.894Z,33.56
2018-08-19T14:07:39.311Z,33.45
2018-08-19T14:10:09.513Z,33.42
2018-08-19T14:12:38.143Z,33.43
2018-08-19T14:15:06.985Z,33.41
2018-08-19T14:17:35.585Z,33.41
2018-08-19T14:20:05.037Z,33.43
2018-08-19T14:22:33.474Z,33.41
2018-08-19T14:25:01.950Z,33.39
2018-08-19T14:27:30.408Z,33.38
2018-08-19T14:29:59.016Z,33.37
2018-08-19T14:32:34.556Z,33.35
2018-08-19T14:35:03.982Z,33.34
2018-08-19T14:37:32.477Z,33.31
2018-08-19T14:40:01.732Z,33.27
2018-08-19T14:42:30.225Z,33.17
2018-08-19T14:44:59.825Z,33.09
2018-08-19T14:47:29.628Z,33.06
2018-08-19T14:49:58.990Z,32.99
2018-08-19T14:52:28.246Z,32.91
2018-08-19T14:54:56.757Z,32.89
2018-08-19T14:57:25.449Z,32.86
2018-08-19T14:59:54.035Z,32.81
2018-08-19T15:02:22.683Z,32.79
2018-08-19T15:04:51.164Z,32.74
2018-08-19T15:07:19.734Z,32.69
2018-08-19T15:09:50.018Z,32.67
2018-08-19T15:12:24.624Z,32.64
2018-08-19T15:14:53.668Z,32.62
2018-08-19T15:17:22.260Z,32.61
2018-08-19T15:19:55.339Z,32.59
2018-08-19T15:22:23.842Z,32.55
2018-08-19T15:24:52.745Z,32.52
2018-08-19T15:27:21.354Z,32.49
2018-08-19T15:29:51.205Z,32.43
2018-08-19T15:32:21.794Z,32.39
2018-08-19T15:34:50.004Z,32.38
2018-08-19T15:37:18.523Z,32.35
2018-08-19T15:39:47.466Z,32.34
2018-08-19T15:42:16.602Z,32.30
2018-08-19T15:44:45.264Z,32.26
2018-08-19T15:47:14.088Z,32.24
2018-08-19T15:49:42.640Z,32.22
2018-08-19T15:52:11.168Z,30.28
2018-08-19T15:54:42.641Z,32.17
2018-08-19T15:57:11.188Z,32.13
2018-08-19T15:59:39.706Z,32.11
2018-08-19T16:02:08.264Z,32.06
2018-08-19T16:04:36.810Z,32.03
2018-08-19T16:07:05.324Z,31.91
2018-08-19T16:09:33.929Z,31.91
2018-08-19T16:12:02.470Z,31.84
2018-08-19T16:14:33.062Z,31.82
2018-08-19T16:17:03.006Z,31.78
2018-08-19T16:19:31.575Z,31.72
2018-08-19T16:22:00.603Z,31.70
2018-08-19T16:24:29.359Z,31.69
2018-08-19T16:26:57.886Z,31.66
2018-08-19T16:29:26.423Z,31.63
2018-08-19T16:31:54.951Z,31.58
2018-08-19T16:34:23.440Z,31.53
2018-08-19T16:36:51.977Z,28.71
2018-08-19T16:39:20.532Z,31.44
2018-08-19T16:41:49.029Z,31.40
2018-08-19T16:44:17.743Z,31.37
2018-08-19T16:46:46.393Z,31.33
2018-08-19T16:49:15.015Z,31.29
2018-08-19T16:51:43.754Z,31.25
2018-08-19T16:54:12.320Z,30.72
2018-08-19T16:56:40.754Z,31.13
2018-08-19T16:59:09.294Z,31.09
2018-08-19T17:01:37.823Z,31.05
2018-08-19T17:04:06.336Z,30.99
2018-08-19T17:06:36.001Z,30.93
2018-08-19T17:09:04.877Z,30.87
2018-08-19T17:11:33.412Z,30.84
2018-08-19T17:14:01.932Z,30.81
2018-08-19T17:16:31.374Z,30.77
2018-08-19T17:18:59.939Z,30.74
2018-08-19T17:21:28.383Z,30.71
2018-08-19T17:23:56.867Z,30.69
2018-08-19T17:26:25.400Z,30.67
2018-08-19T17:28:53.865Z,30.64
2018-08-19T17:31:22.445Z,30.60
2018-08-19T17:33:50.922Z,30.56
2018-08-19T17:36:33.473Z,30.48
2018-08-19T17:39:02.025Z,30.42
2018-08-19T17:41:30.589Z,30.35
2018-08-19T17:44:02.357Z,30.29
2018-08-19T17:46:31.007Z,30.22
2018-08-19T17:48:59.557Z,30.17
2018-08-19T17:51:33.757Z,30.12
2018-08-19T17:54:02.356Z,30.07
2018-08-19T17:56:30.855Z,30.04
2018-08-19T17:58:59.349Z,29.98
2018-08-19T18:01:28.021Z,29.50
2018-08-19T18:03:56.478Z,29.88
2018-08-19T18:06:25.074Z,29.81
2018-08-19T18:08:54.172Z,29.76
2018-08-19T18:11:22.918Z,29.70
2018-08-19T18:13:51.372Z,29.65
2018-08-19T18:16:19.881Z,29.58
2018-08-19T18:18:48.896Z,29.51
2018-08-19T18:21:17.485Z,29.45
2018-08-19T18:23:47.763Z,29.39
2018-08-19T18:26:16.333Z,29.36
2018-08-19T18:28:46.363Z,29.31
2018-08-19T18:31:18.243Z,29.27
2018-08-19T18:33:55.993Z,29.22
2018-08-19T18:36:25.531Z,29.19
2018-08-19T18:38:53.995Z,29.13
2018-08-19T18:41:27.115Z,29.10
2018-08-19T18:43:58.977Z,29.04
2018-08-19T18:46:29.045Z,29.01
2018-08-19T18:49:03.128Z,28.95
2018-08-19T18:51:32.747Z,28.88
2018-08-19T18:54:01.483Z,28.83
2018-08-19T18:56:30.136Z,28.78
2018-08-19T18:58:58.873Z,28.74
2018-08-19T19:01:27.322Z,28.68
2018-08-19T19:03:55.802Z,28.64
2018-08-19T19:06:24.302Z,28.60
2018-08-19T19:08:52.790Z,28.54
2018-08-19T19:11:22.745Z,28.48
2018-08-19T19:13:51.367Z,28.44
2018-08-19T19:16:24.849Z,28.38
2018-08-19T19:18:53.997Z,28.34
2018-08-19T19:21:22.501Z,28.31
2018-08-19T19:23:50.914Z,28.27
2018-08-19T19:26:27.314Z,28.23
2018-08-19T19:28:56.808Z,28.19
2018-08-19T19:31:25.317Z,28.14
2018-08-19T19:34:00.974Z,28.10
2018-08-19T19:36:30.304Z,28.06
2018-08-19T19:38:59.251Z,28.02
2018-08-19T19:41:30.021Z,28.00
2018-08-19T19:43:58.593Z,27.96
2018-08-19T19:46:27.114Z,27.94
2018-08-19T19:48:55.656Z,27.91
2018-08-19T19:51:24.178Z,27.85
2018-08-19T19:53:52.681Z,27.83
2018-08-19T19:56:21.123Z,27.80
2018-08-19T19:58:50.573Z,27.77
2018-08-19T20:01:19.175Z,27.74
2018-08-19T20:03:52.787Z,27.70
2018-08-19T20:06:21.370Z,27.67
2018-08-19T20:08:49.967Z,27.63
2018-08-19T20:11:23.543Z,27.62
2018-08-19T20:13:52.135Z,27.57
2018-08-19T20:16:20.817Z,27.55
2018-08-19T20:18:49.363Z,27.54
2018-08-19T20:21:23.125Z,27.51
2018-08-19T20:23:52.741Z,27.46
2018-08-19T20:26:21.793Z,27.45
2018-08-19T20:28:51.311Z,27.41
2018-08-19T20:31:19.774Z,27.38
2018-08-19T20:33:48.267Z,27.35
2018-08-19T20:36:16.747Z,27.32
2018-08-19T20:38:45.235Z,27.29
2018-08-19T20:41:13.707Z,27.26
2018-08-19T20:43:42.189Z,27.24
2018-08-19T20:46:10.645Z,27.19
2018-08-19T20:48:39.209Z,27.16
2018-08-19T20:51:07.730Z,27.14
2018-08-19T20:53:36.408Z,27.10
2018-08-19T20:56:04.892Z,27.08
2018-08-19T20:58:33.342Z,27.06
2018-08-19T21:01:01.875Z,27.03
2018-08-19T21:03:30.419Z,26.99
2018-08-19T21:05:58.884Z,26.95
2018-08-19T21:08:27.357Z,26.92
2018-08-19T21:10:55.814Z,26.88
2018-08-19T21:13:24.417Z,26.85
2018-08-19T21:15:55.058Z,26.81
2018-08-19T21:18:23.583Z,26.79
2018-08-19T21:20:53.397Z,26.76
2018-08-19T21:23:21.924Z,26.73
2018-08-19T21:25:55.800Z,26.70
2018-08-19T21:28:24.275Z,26.66
2018-08-19T21:30:52.814Z,26.62
2018-08-19T21:33:21.309Z,26.59
2018-08-19T21:35:52.289Z,26.57
2018-08-19T21:38:20.825Z,26.52
2018-08-19T21:40:50.105Z,26.51
2018-08-19T21:43:18.606Z,26.47
2018-08-19T21:45:47.162Z,26.45
2018-08-19T21:48:16.587Z,26.44
2018-08-19T21:50:45.136Z,26.43
2018-08-19T21:53:15.033Z,26.45
2018-08-19T21:55:44.725Z,26.48
2018-08-19T21:58:13.262Z,26.51
2018-08-19T22:00:44.449Z,26.52
2018-08-19T22:03:20.097Z,26.56
2018-08-19T22:05:49.949Z,26.58
2018-08-19T22:08:18.563Z,26.60
2018-08-19T22:10:48.171Z,26.61
2018-08-19T22:13:16.694Z,26.61
2018-08-19T22:15:46.011Z,26.59
2018-08-19T22:18:16.943Z,26.57
2018-08-19T22:20:58.361Z,26.56
2018-08-19T22:23:35.036Z,26.53
2018-08-19T22:26:03.695Z,26.54
2018-08-19T22:28:32.531Z,26.55
2018-08-19T22:31:11.016Z,26.56
2018-08-19T22:33:39.525Z,26.56
2018-08-19T22:36:08.106Z,26.61
2018-08-19T22:38:36.653Z,26.62
2018-08-19T22:41:05.145Z,26.65
2018-08-19T22:43:33.708Z,26.67
2018-08-19T22:48:46.132Z,26.71
2018-08-19T22:51:15.934Z,26.72
2018-08-19T22:53:44.522Z,26.74
2018-08-19T22:56:13.128Z,26.76
2018-08-19T22:58:41.642Z,26.76
2018-08-19T23:01:10.153Z,26.78
2018-08-19T23:03:38.688Z,26.78
2018-08-19T23:06:07.331Z,26.77
2018-08-19T23:08:35.846Z,26.78
2018-08-19T23:11:04.998Z,26.79
2018-08-19T23:13:44.776Z,26.80
2018-08-19T23:16:13.736Z,26.77
2018-08-19T23:18:42.909Z,26.78
2018-08-19T23:21:11.586Z,26.76
2018-08-19T23:23:40.088Z,26.74
2018-08-19T23:26:08.497Z,26.75
2018-08-19T23:28:37.033Z,26.76
2018-08-19T23:31:05.459Z,26.75
2018-08-19T23:33:33.964Z,26.75
2018-08-19T23:36:02.414Z,26.73
2018-08-19T23:38:30.950Z,26.74
2018-08-19T23:40:59.450Z,26.76
2018-08-19T23:43:27.925Z,26.75
2018-08-19T23:45:56.384Z,26.78
2018-08-19T23:48:24.871Z,26.76
2018-08-19T23:50:53.385Z,26.76
2018-08-19T23:53:21.880Z,26.78
2018-08-19T23:55:50.373Z,26.80
2018-08-19T23:58:18.837Z,26.79
